Time;durP1;ratioP1;P1;durP2;ratioP2;P2;SDS_P1;SDS_P2;PMS_P1;PMS_P2;Temp;Humidity;BMP_temperature;BMP_pressure;BME280_temperature;BME280_humidity;BME280_pressure;Samples;Min_cycle;Max_cycle;Signal;HPM_P1;HPM_P2
2023/05/31 00:00:19;;;;;;;7.60;4.93;;;16.00;99.90;;;;;;4161969;28;20138;-60
2023/05/31 00:02:20;;;;;;;8.77;5.57;;;15.90;99.90;;;;;;4163874;28;20481;-61
2023/05/31 00:04:23;;;;;;;9.48;5.18;;;15.90;99.90;;;;;;4164373;28;20033;-60
2023/05/31 00:06:24;;;;;;;6.15;4.32;;;15.90;99.90;;;;;;4162982;28;20037;-60
2023/05/31 00:08:25;;;;;;;8.00;5.63;;;15.90;99.90;;;;;;4163535;28;20072;-60
2023/05/31 00:10:26;;;;;;;8.63;4.93;;;15.80;99.90;;;;;;4164230;28;20037;-61
2023/05/31 00:12:27;;;;;;;8.23;5.15;;;15.90;99.90;;;;;;4163869;28;20029;-62
2023/05/31 00:14:29;;;;;;;8.15;5.55;;;15.80;99.90;;;;;;4164433;28;20025;-61
2023/05/31 00:16:30;;;;;;;10.55;5.03;;;15.80;99.90;;;;;;4163341;28;20478;-62
2023/05/31 00:18:31;;;;;;;8.38;4.78;;;15.80;99.90;;;;;;4164545;28;20033;-61
2023/05/31 00:20:32;;;;;;;6.80;4.45;;;15.80;99.90;;;;;;4162503;28;20091;-62
2023/05/31 00:22:33;;;;;;;10.52;5.80;;;15.70;99.90;;;;;;4164196;28;20099;-61
2023/05/31 00:24:34;;;;;;;8.65;5.50;;;15.80;99.90;;;;;;4163492;28;20033;-59
2023/05/31 00:26:35;;;;;;;13.43;5.28;;;15.70;99.90;;;;;;4163970;28;20068;-59
2023/05/31 00:28:36;;;;;;;7.80;4.70;;;15.80;99.90;;;;;;4163370;28;20440;-60
2023/05/31 00:30:38;;;;;;;7.50;5.60;;;15.80;99.90;;;;;;4163784;28;20099;-60
2023/05/31 00:32:39;;;;;;;9.10;5.90;;;15.70;99.90;;;;;;4163142;28;20037;-60
2023/05/31 00:34:40;;;;;;;7.32;5.63;;;15.70;99.90;;;;;;4163580;28;20095;-60
2023/05/31 00:36:41;;;;;;;10.30;5.40;;;15.70;99.90;;;;;;4163221;28;20075;-60
2023/05/31 00:38:42;;;;;;;10.32;5.88;;;15.70;99.90;;;;;;4163863;28;20470;-61
2023/05/31 00:40:45;;;;;;;10.57;5.70;;;15.60;99.90;;;;;;4163541;28;20099;-60
2023/05/31 00:42:46;;;;;;;7.32;5.32;;;15.60;99.90;;;;;;4155293;28;20428;-60
2023/05/31 00:44:47;;;;;;;9.18;5.50;;;15.50;99.90;;;;;;4151502;28;20041;-60
2023/05/31 00:46:48;;;;;;;9.75;6.30;;;15.50;99.90;;;;;;4154879;28;20038;-60
2023/05/31 00:48:50;;;;;;;11.88;6.82;;;15.40;99.90;;;;;;4147807;28;20434;-75
2023/05/31 00:50:51;;;;;;;8.38;5.78;;;15.40;99.90;;;;;;4147043;28;20038;-72
2023/05/31 00:52:54;;;;;;;12.45;5.50;;;15.30;99.90;;;;;;4162084;28;20084;-72
2023/05/31 00:54:55;;;;;;;8.88;5.57;;;15.30;99.90;;;;;;4162468;28;20799;-61
2023/05/31 00:56:57;;;;;;;9.77;5.72;;;15.30;99.90;;;;;;4163559;28;20033;-69
2023/05/31 00:59:00;;;;;;;8.77;4.95;;;15.20;99.90;;;;;;4162054;28;20449;-61
2023/05/31 01:01:02;;;;;;;12.30;5.93;;;15.10;99.90;;;;;;4163110;28;20072;-68
2023/05/31 01:03:03;;;;;;;9.15;5.75;;;15.10;99.90;;;;;;4162962;28;20579;-71
2023/05/31 01:05:05;;;;;;;9.32;5.28;;;15.10;99.90;;;;;;4163421;28;20041;-75
2023/05/31 01:07:08;;;;;;;8.48;5.35;;;15.00;99.90;;;;;;4162050;28;20071;-75
2023/05/31 01:09:09;;;;;;;10.77;5.97;;;15.00;99.90;;;;;;4163494;28;20136;-73
2023/05/31 01:11:52;;;;;;;8.65;6.25;;;15.00;99.90;;;;;;4161691;28;20142;-73
2023/05/31 01:14:08;;;;;;;9.88;4.97;;;15.00;99.90;;;;;;4130302;28;20049;-75
2023/05/31 01:16:27;;;;;;;7.90;5.03;;;15.00;99.90;;;;;;4161940;28;20075;-60
2023/05/31 01:18:37;;;;;;;9.98;5.65;;;14.90;99.90;;;;;;4151802;28;20025;-73
2023/05/31 01:20:40;;;;;;;;;;;14.90;99.90;;;;;;4162655;28;20045;-61
2023/05/31 01:22:59;;;;;;;9.48;5.50;;;14.90;99.90;;;;;;4163507;28;19917;-75
2023/05/31 01:25:30;;;;;;;8.27;5.30;;;14.90;99.90;;;;;;4161487;28;20395;-61
2023/05/31 01:27:32;;;;;;;12.18;5.38;;;14.80;99.90;;;;;;4163673;28;20033;-61
2023/05/31 01:29:35;;;;;;;8.48;5.30;;;14.80;99.90;;;;;;4162519;28;20029;-75
2023/05/31 01:31:38;;;;;;;14.38;6.03;;;14.80;99.90;;;;;;4163256;28;20033;-61
2023/05/31 01:33:41;;;;;;;9.43;5.85;;;14.70;99.90;;;;;;4162115;28;20032;-75
2023/05/31 01:35:42;;;;;;;10.02;5.68;;;14.70;99.90;;;;;;4163466;28;20037;-61
2023/05/31 01:37:43;;;;;;;8.18;5.53;;;14.70;99.90;;;;;;4161930;28;20091;-61
2023/05/31 01:39:46;;;;;;;9.13;4.93;;;14.60;99.90;;;;;;4162564;28;20045;-76
2023/05/31 01:41:50;;;;;;;8.23;5.15;;;14.60;99.90;;;;;;4161641;28;20061;-69
2023/05/31 01:43:52;;;;;;;10.77;5.75;;;14.60;99.90;;;;;;4162562;28;20445;-76
2023/05/31 01:45:55;;;;;;;9.07;4.90;;;14.60;99.90;;;;;;4162022;28;20075;-60
2023/05/31 01:48:04;;;;;;;11.27;5.28;;;14.50;99.90;;;;;;4162751;28;20029;-61
2023/05/31 01:50:05;;;;;;;10.90;5.13;;;14.50;99.90;;;;;;4162633;28;20029;-60
2023/05/31 01:52:12;;;;;;;9.85;5.88;;;14.50;99.90;;;;;;4162483;28;20060;-75
2023/05/31 01:54:13;;;;;;;8.60;5.70;;;14.40;99.90;;;;;;4162464;28;20033;-74
2023/05/31 01:56:15;;;;;;;8.55;4.75;;;14.40;99.90;;;;;;4143559;28;20073;-62
2023/05/31 01:58:17;;;;;;;9.38;5.38;;;14.40;99.90;;;;;;4162578;28;20045;-61
2023/05/31 02:00:19;;;;;;;7.90;5.53;;;14.40;99.90;;;;;;4162037;28;20045;-71
2023/05/31 02:02:21;;;;;;;13.50;5.60;;;14.40;99.90;;;;;;4162639;28;20079;-73
2023/05/31 02:04:22;;;;;;;10.25;5.10;;;14.30;99.90;;;;;;4161579;28;20033;-72
2023/05/31 02:06:26;;;;;;;11.07;6.15;;;14.30;99.90;;;;;;4162073;28;20033;-61
2023/05/31 02:08:28;;;;;;;10.52;6.30;;;14.40;99.90;;;;;;4160857;28;20103;-60
2023/05/31 02:10:29;;;;;;;7.70;5.35;;;14.30;99.90;;;;;;4162644;28;20029;-61
2023/05/31 02:12:30;;;;;;;9.82;5.20;;;14.30;99.90;;;;;;4160993;28;20068;-61
2023/05/31 02:14:31;;;;;;;8.05;5.63;;;14.30;99.90;;;;;;4163021;28;20025;-73
2023/05/31 02:16:32;;;;;;;9.50;5.55;;;14.20;99.90;;;;;;4161046;28;20049;-61
2023/05/31 02:18:35;;;;;;;7.93;5.40;;;14.10;99.90;;;;;;4161643;28;20041;-61
2023/05/31 02:20:36;;;;;;;10.52;5.85;;;14.10;99.90;;;;;;4161475;28;20883;-60
2023/05/31 02:22:37;;;;;;;9.85;6.07;;;14.10;99.90;;;;;;4161830;28;20061;-69
2023/05/31 02:24:38;;;;;;;10.63;5.47;;;14.00;99.90;;;;;;4160830;28;20103;-74
2023/05/31 02:26:39;;;;;;;12.63;6.18;;;14.00;99.90;;;;;;4161365;28;20030;-61
2023/05/31 02:28:40;;;;;;;11.75;5.88;;;13.90;99.90;;;;;;4162027;28;20041;-59
2023/05/31 02:30:52;;;;;;;11.00;5.53;;;13.80;99.90;;;;;;4161384;28;20025;-61
2023/05/31 02:32:54;;;;;;;10.75;5.88;;;13.80;99.90;;;;;;4160665;28;20049;-60
2023/05/31 02:34:55;;;;;;;9.00;5.15;;;13.90;99.90;;;;;;4161279;28;20045;-60
2023/05/31 02:36:56;;;;;;;8.15;5.57;;;13.90;99.90;;;;;;4162199;28;20038;-64
2023/05/31 02:38:57;;;;;;;10.45;6.25;;;13.90;99.90;;;;;;4160799;28;20437;-73
2023/05/31 02:40:58;;;;;;;10.25;5.78;;;13.90;99.90;;;;;;4161996;28;20441;-74
2023/05/31 02:42:59;;;;;;;11.07;5.88;;;13.90;99.90;;;;;;4161171;28;20485;-60
2023/05/31 02:45:00;;;;;;;10.05;5.35;;;14.00;99.90;;;;;;4162164;28;20095;-68
2023/05/31 02:47:02;;;;;;;7.80;5.60;;;13.90;99.90;;;;;;4160622;28;20855;-60
2023/05/31 02:49:03;;;;;;;15.02;6.28;;;13.90;99.90;;;;;;4162268;28;20433;-74
2023/05/31 02:51:04;;;;;;;13.10;6.30;;;14.00;99.90;;;;;;4160806;28;20087;-74
2023/05/31 02:53:05;;;;;;;11.52;5.95;;;13.90;99.90;;;;;;4161396;28;20033;-65
2023/05/31 02:55:08;;;;;;;9.25;5.15;;;14.00;99.90;;;;;;4160391;28;20091;-64
2023/05/31 02:57:09;;;;;;;12.10;5.60;;;14.00;99.90;;;;;;4161298;28;20147;-75
2023/05/31 02:59:10;;;;;;;8.35;5.68;;;14.00;99.90;;;;;;4161293;28;20095;-61
2023/05/31 03:01:11;;;;;;;7.72;5.28;;;14.00;99.90;;;;;;4160705;28;20049;-62
2023/05/31 03:03:12;;;;;;;16.75;5.63;;;14.00;99.90;;;;;;4162006;28;20030;-63
2023/05/31 03:05:13;;;;;;;9.27;5.60;;;14.00;99.90;;;;;;4161119;28;20025;-60
2023/05/31 03:07:14;;;;;;;9.73;5.50;;;14.10;99.90;;;;;;4161866;28;20041;-62
2023/05/31 03:09:16;;;;;;;8.98;4.88;;;14.30;99.90;;;;;;4161035;28;20067;-64
2023/05/31 03:11:17;;;;;;;7.75;5.13;;;14.40;99.90;;;;;;4161699;28;20728;-62
2023/05/31 03:13:18;;;;;;;8.90;5.30;;;14.50;99.90;;;;;;4160929;28;20084;-64
2023/05/31 03:15:20;;;;;;;7.90;5.10;;;14.70;99.90;;;;;;4162087;28;20033;-60
2023/05/31 03:17:21;;;;;;;6.95;5.00;;;14.90;99.90;;;;;;4160396;28;20107;-60
2023/05/31 03:19:22;;;;;;;10.57;5.70;;;15.10;99.90;;;;;;4161883;28;20037;-60
2023/05/31 03:21:24;;;;;;;9.20;5.55;;;15.20;99.90;;;;;;4160132;28;20102;-75
2023/05/31 03:23:25;;;;;;;8.40;5.28;;;15.40;99.90;;;;;;4161223;28;20115;-61
2023/05/31 03:25:27;;;;;;;9.65;5.28;;;15.60;99.90;;;;;;4160104;28;20118;-60
2023/05/31 03:27:28;;;;;;;14.93;5.70;;;15.90;99.90;;;;;;4159788;28;20096;-61
2023/05/31 03:29:29;;;;;;;10.25;5.60;;;15.80;99.90;;;;;;4161131;28;20033;-73
2023/05/31 03:31:30;;;;;;;14.68;7.20;;;16.00;99.90;;;;;;4160263;28;20037;-65
2023/05/31 03:33:32;;;;;;;17.35;6.60;;;15.90;99.90;;;;;;4161498;28;20429;-62
2023/05/31 03:35:33;;;;;;;10.15;6.13;;;15.70;99.90;;;;;;4159885;28;20037;-61
2023/05/31 03:37:34;;;;;;;13.48;6.53;;;15.50;99.90;;;;;;4161625;28;20540;-61
2023/05/31 03:39:35;;;;;;;14.85;6.10;;;15.30;99.90;;;;;;4160572;28;20021;-61
2023/05/31 03:41:36;;;;;;;10.85;5.72;;;15.10;99.90;;;;;;4160291;28;20053;-73
2023/05/31 03:43:38;;;;;;;8.82;5.15;;;15.10;99.90;;;;;;4160252;28;20033;-61
2023/05/31 03:45:39;;;;;;;9.85;5.47;;;15.20;99.90;;;;;;4161783;28;20076;-62
2023/05/31 03:47:40;;;;;;;12.90;5.50;;;15.10;99.90;;;;;;4159957;28;20104;-62
2023/05/31 03:49:41;;;;;;;13.57;6.47;;;15.20;99.90;;;;;;4160977;28;20095;-61
2023/05/31 03:51:42;;;;;;;8.45;5.90;;;15.20;99.90;;;;;;4160815;28;20033;-61
2023/05/31 03:53:43;;;;;;;10.75;5.30;;;15.30;99.90;;;;;;4160354;28;20045;-62
2023/05/31 03:55:44;;;;;;;9.90;5.88;;;15.30;99.90;;;;;;4159845;28;20029;-61
2023/05/31 03:57:46;;;;;;;8.15;4.97;;;15.30;99.90;;;;;;4160231;28;20107;-61
2023/05/31 03:59:47;;;;;;;11.25;6.03;;;15.40;99.90;;;;;;4160495;28;20021;-59
2023/05/31 04:01:48;;;;;;;17.52;8.10;;;15.40;99.90;;;;;;4160587;28;20033;-59
2023/05/31 04:03:49;;;;;;;12.75;6.38;;;15.50;99.90;;;;;;4161209;28;20034;-61
2023/05/31 04:05:50;;;;;;;7.97;5.20;;;15.50;99.90;;;;;;4160240;28;20055;-61
2023/05/31 04:07:51;;;;;;;10.55;5.75;;;15.50;99.90;;;;;;4161380;28;20482;-60
2023/05/31 04:09:52;;;;;;;9.95;5.88;;;15.60;99.90;;;;;;4157471;28;20041;-60
2023/05/31 04:11:53;;;;;;;10.30;5.53;;;15.60;99.90;;;;;;4159112;28;20038;-60
2023/05/31 04:13:54;;;;;;;11.25;6.07;;;15.70;99.90;;;;;;4158914;28;20045;-61
2023/05/31 04:15:56;;;;;;;10.40;6.10;;;15.70;99.90;;;;;;4160894;28;21059;-62
2023/05/31 04:17:57;;;;;;;8.95;5.60;;;15.80;99.90;;;;;;4159892;28;20029;-62
2023/05/31 04:19:58;;;;;;;12.15;6.25;;;15.80;99.90;;;;;;4161403;28;20029;-61
2023/05/31 04:21:59;;;;;;;11.57;5.55;;;15.80;99.90;;;;;;4160214;28;20107;-61
2023/05/31 04:24:01;;;;;;;16.23;5.57;;;15.90;99.90;;;;;;4159771;28;20038;-61
2023/05/31 04:26:02;;;;;;;8.95;6.28;;;15.90;99.90;;;;;;4159735;28;20425;-61
2023/05/31 04:28:05;;;;;;;10.95;5.68;;;16.10;99.90;;;;;;4160550;28;20041;-61
2023/05/31 04:30:07;;;;;;;9.88;5.10;;;16.20;99.90;;;;;;4159240;28;20033;-60
2023/05/31 04:32:08;;;;;;;10.90;5.28;;;16.30;99.90;;;;;;4159402;28;20037;-63
2023/05/31 04:34:10;;;;;;;14.20;5.47;;;16.40;99.90;;;;;;4160336;28;20053;-60
2023/05/31 04:36:11;;;;;;;12.13;5.43;;;16.50;99.90;;;;;;4159510;28;20548;-60
2023/05/31 04:38:14;;;;;;;9.57;4.80;;;16.70;99.90;;;;;;4160181;28;20038;-60
2023/05/31 04:40:15;;;;;;;9.07;4.80;;;17.20;99.90;;;;;;4158950;28;20104;-61
2023/05/31 04:42:16;;;;;;;9.07;4.97;;;17.70;99.90;;;;;;4161016;28;20033;-60
2023/05/31 04:44:18;;;;;;;10.65;4.93;;;18.40;99.90;;;;;;4159978;28;20320;-61
2023/05/31 04:46:21;;;;;;;7.45;4.32;;;19.00;99.90;;;;;;4160543;28;20049;-59
2023/05/31 04:48:22;;;;;;;11.77;5.28;;;19.80;99.90;;;;;;4162455;28;20017;-61
2023/05/31 04:50:24;;;;;;;8.45;4.82;;;20.40;99.90;;;;;;4162384;28;20049;-63
2023/05/31 04:52:31;;;;;;;11.38;4.60;;;20.90;99.90;;;;;;4163564;28;20041;-61
2023/05/31 04:54:32;;;;;;;7.35;4.78;;;21.40;99.90;;;;;;4162985;28;20041;-61
2023/05/31 04:56:34;;;;;;;8.68;4.57;;;21.70;99.90;;;;;;4162749;28;20373;-62
2023/05/31 04:58:35;;;;;;;9.00;5.20;;;21.30;99.90;;;;;;4163452;28;20438;-63
2023/05/31 05:00:37;;;;;;;9.38;5.47;;;21.20;99.90;;;;;;4144183;28;20054;-60
2023/05/31 05:02:38;;;;;;;8.35;5.40;;;21.00;99.90;;;;;;4156991;28;20498;-74
2023/05/31 05:04:39;;;;;;;11.55;4.85;;;20.90;99.90;;;;;;4161821;28;20490;-61
2023/05/31 05:06:41;;;;;;;12.68;5.18;;;21.00;99.90;;;;;;4162030;28;20382;-60
2023/05/31 05:08:43;;;;;;;8.45;5.75;;;21.40;99.90;;;;;;4163553;28;20079;-68
2023/05/31 05:10:44;;;;;;;11.85;4.78;;;21.70;99.90;;;;;;4161702;28;20042;-67
2023/05/31 05:12:46;;;;;;;7.50;5.07;;;22.20;99.90;;;;;;4163564;28;20083;-62
2023/05/31 05:14:47;;;;;;;10.13;6.97;;;22.40;99.90;;;;;;4162647;28;20033;-61
2023/05/31 05:16:48;;;;;;;15.25;6.85;;;22.60;99.90;;;;;;4163023;28;20033;-61
2023/05/31 05:18:49;;;;;;;11.13;6.75;;;22.40;99.90;;;;;;4161778;28;20045;-61
2023/05/31 05:20:50;;;;;;;10.38;5.57;;;22.10;99.90;;;;;;4163214;28;20525;-60
2023/05/31 05:22:52;;;;;;;6.95;4.95;;;22.10;99.90;;;;;;4162591;28;20448;-61
2023/05/31 05:24:53;;;;;;;7.57;5.25;;;22.20;99.90;;;;;;4163511;28;20033;-61
2023/05/31 05:26:54;;;;;;;10.52;5.15;;;22.10;99.90;;;;;;4162120;28;20049;-62
2023/05/31 05:28:55;;;;;;;9.15;4.78;;;22.10;99.90;;;;;;4163091;28;20560;-60
2023/05/31 05:30:56;;;;;;;10.88;5.28;;;22.20;99.90;;;;;;4161383;28;20087;-59
2023/05/31 05:32:57;;;;;;;11.88;5.43;;;21.80;99.90;;;;;;4161931;28;20186;-61
2023/05/31 05:34:58;;;;;;;11.57;6.55;;;21.60;99.90;;;;;;4162364;28;20067;-60
2023/05/31 05:37:00;;;;;;;9.20;5.40;;;21.30;99.90;;;;;;4162069;28;20034;-61
2023/05/31 05:39:04;;;;;;;11.45;5.55;;;21.20;99.90;;;;;;4162341;28;20037;-63
2023/05/31 05:41:10;;;;;;;9.85;5.32;;;21.30;99.90;;;;;;4143879;28;20053;-62
2023/05/31 05:43:11;;;;;;;10.05;5.35;;;21.40;99.90;;;;;;4162925;28;20099;-61
2023/05/31 05:45:13;;;;;;;9.18;5.05;;;21.40;99.90;;;;;;4161107;28;20030;-61
2023/05/31 05:47:14;;;;;;;15.15;5.78;;;21.30;99.90;;;;;;4163029;28;20038;-67
2023/05/31 05:49:15;;;;;;;11.95;5.40;;;21.30;99.90;;;;;;4161932;28;20075;-61
2023/05/31 05:51:16;;;;;;;17.75;6.65;;;21.30;99.90;;;;;;4163076;28;20021;-60
2023/05/31 05:53:18;;;;;;;11.18;6.80;;;21.20;99.90;;;;;;4162261;28;20527;-61
2023/05/31 05:55:20;;;;;;;15.93;6.65;;;21.30;99.90;;;;;;4163045;28;20021;-61
2023/05/31 05:57:21;;;;;;;9.43;5.75;;;21.30;99.90;;;;;;4161455;28;20091;-62
2023/05/31 05:59:22;;;;;;;12.07;6.40;;;21.40;99.90;;;;;;4144804;28;20430;-60
2023/05/31 06:01:26;;;;;;;11.93;5.38;;;21.50;99.90;;;;;;4144042;28;20041;-61
2023/05/31 06:03:27;;;;;;;12.27;6.05;;;21.50;99.90;;;;;;4161787;28;20049;-64
2023/05/31 06:05:28;;;;;;;9.38;6.20;;;21.40;99.90;;;;;;4160863;28;20079;-65
2023/05/31 06:07:30;;;;;;;14.27;6.90;;;21.30;99.90;;;;;;4161716;28;20095;-61
2023/05/31 06:09:31;;;;;;;18.05;7.07;;;21.10;99.90;;;;;;4143874;28;20469;-61
2023/05/31 06:11:32;;;;;;;18.30;6.80;;;20.80;99.90;;;;;;4161681;28;20551;-61
2023/05/31 06:13:34;;;;;;;16.30;7.18;;;20.40;99.90;;;;;;4144162;28;20449;-62
2023/05/31 06:15:35;;;;;;;20.55;7.70;;;20.10;99.90;;;;;;4143653;28;20042;-60
2023/05/31 06:17:36;;;;;;;16.95;7.47;;;19.90;99.90;;;;;;4162477;28;20168;-61
2023/05/31 06:19:37;;;;;;;14.80;7.15;;;19.70;99.90;;;;;;4160576;28;20071;-62
2023/05/31 06:21:38;;;;;;;19.02;7.88;;;19.50;99.90;;;;;;4162264;28;20555;-60
2023/05/31 06:23:39;;;;;;;18.00;7.60;;;19.30;99.90;;;;;;4161666;28;20079;-61
2023/05/31 06:25:41;;;;;;;23.45;8.00;;;19.20;99.90;;;;;;4162337;28;20472;-61
2023/05/31 06:27:42;;;;;;;16.13;8.07;;;19.10;99.90;;;;;;4160840;28;20056;-61
2023/05/31 06:29:43;;;;;;;11.05;6.97;;;19.10;99.90;;;;;;4162681;28;20063;-61
2023/05/31 06:31:44;;;;;;;17.13;7.93;;;19.20;99.90;;;;;;4160290;28;20070;-60
2023/05/31 06:33:45;;;;;;;19.60;7.82;;;19.10;99.90;;;;;;4160933;28;20041;-71
2023/05/31 06:35:46;;;;;;;15.93;6.97;;;19.10;99.90;;;;;;4161249;28;20034;-67
2023/05/31 06:37:47;;;;;;;14.43;6.35;;;19.20;99.90;;;;;;4161594;28;20079;-63
2023/05/31 06:39:49;;;;;;;14.30;7.32;;;19.20;99.90;;;;;;4161544;28;20030;-64
2023/05/31 06:41:50;;;;;;;14.63;6.65;;;19.20;99.90;;;;;;4160270;28;20099;-64
2023/05/31 06:43:51;;;;;;;17.15;7.38;;;19.30;99.90;;;;;;4161747;28;20083;-67
2023/05/31 06:45:52;;;;;;;12.50;7.35;;;19.30;99.90;;;;;;4160888;28;20079;-68
2023/05/31 06:47:53;;;;;;;12.52;7.18;;;19.50;99.90;;;;;;4161267;28;20107;-69
2023/05/31 06:49:55;;;;;;;15.25;8.20;;;19.60;99.90;;;;;;4160392;28;20049;-70
2023/05/31 06:51:57;;;;;;;11.10;6.60;;;19.60;99.90;;;;;;4161575;28;20429;-71
2023/05/31 06:54:00;;;;;;;11.18;6.13;;;19.80;99.90;;;;;;4160676;28;20096;-64
2023/05/31 06:56:01;;;;;;;8.48;5.65;;;20.00;99.90;;;;;;4162201;28;20178;-72
2023/05/31 06:58:02;;;;;;;8.30;5.78;;;20.10;99.90;;;;;;4160096;28;20037;-70
2023/05/31 07:00:07;;;;;;;10.00;5.32;;;20.10;99.90;;;;;;4162026;28;20041;-70
2023/05/31 07:02:09;;;;;;;13.48;6.38;;;20.00;99.90;;;;;;4160754;28;20478;-64
2023/05/31 07:04:10;;;;;;;15.35;6.13;;;20.10;99.90;;;;;;4161253;28;20053;-64
2023/05/31 07:06:11;;;;;;;9.98;4.95;;;20.00;99.90;;;;;;4160587;28;20401;-65
2023/05/31 07:08:14;;;;;;;8.63;5.43;;;20.00;99.90;;;;;;4161618;28;20033;-62
2023/05/31 07:10:15;;;;;;;9.38;5.35;;;19.90;99.90;;;;;;4160097;28;20417;-70
2023/05/31 07:12:17;;;;;;;12.10;6.40;;;20.00;99.90;;;;;;4160414;28;20041;-69
2023/05/31 07:14:18;;;;;;;8.63;5.32;;;20.00;99.90;;;;;;4160727;28;20041;-71
2023/05/31 07:16:19;;;;;;;12.45;6.07;;;20.00;99.90;;;;;;4160820;28;20033;-62
2023/05/31 07:18:20;;;;;;;9.73;5.35;;;20.20;99.90;;;;;;4160815;28;20103;-68
2023/05/31 07:20:21;;;;;;;9.05;5.70;;;20.20;99.90;;;;;;4160380;28;20034;-70
2023/05/31 07:22:22;;;;;;;10.45;6.15;;;20.40;99.90;;;;;;4161423;28;20498;-72
2023/05/31 07:24:24;;;;;;;8.82;6.20;;;20.40;99.90;;;;;;4160310;28;20045;-62
2023/05/31 07:26:25;;;;;;;11.48;6.50;;;20.40;99.90;;;;;;4161088;28;20038;-67
2023/05/31 07:28:26;;;;;;;10.18;6.57;;;20.40;99.90;;;;;;4160431;28;20433;-64
2023/05/31 07:30:27;;;;;;;8.70;5.80;;;20.70;99.90;;;;;;4160851;28;20091;-62
2023/05/31 07:32:28;;;;;;;11.63;6.43;;;20.90;99.90;;;;;;4159715;28;20682;-68
2023/05/31 07:34:29;;;;;;;11.77;6.47;;;21.00;99.90;;;;;;4161567;28;20367;-69
2023/05/31 07:36:31;;;;;;;15.32;6.75;;;21.10;99.90;;;;;;4160330;28;20095;-63
2023/05/31 07:38:33;;;;;;;11.55;6.18;;;21.10;99.90;;;;;;4161114;28;20442;-63
2023/05/31 07:40:34;;;;;;;13.68;6.22;;;21.20;99.90;;;;;;4160572;28;20484;-65
2023/05/31 07:42:36;;;;;;;11.32;6.65;;;21.40;99.90;;;;;;4160686;28;20524;-69
2023/05/31 07:44:37;;;;;;;9.30;6.47;;;21.40;99.90;;;;;;4160148;28;20115;-61
2023/05/31 07:46:38;;;;;;;11.32;6.55;;;21.60;99.90;;;;;;4160412;28;20120;-72
2023/05/31 07:48:39;;;;;;;9.45;5.93;;;21.50;99.90;;;;;;4160992;28;20484;-60
2023/05/31 07:50:40;;;;;;;15.52;7.10;;;21.70;99.90;;;;;;4160196;28;20417;-70
2023/05/31 07:52:41;;;;;;;13.48;6.88;;;21.60;99.90;;;;;;4160671;28;20033;-64
2023/05/31 07:54:42;;;;;;;9.90;6.45;;;21.90;99.90;;;;;;4159765;28;20045;-71
2023/05/31 07:56:44;;;;;;;11.10;6.45;;;22.00;99.90;;;;;;4160371;28;20033;-69
2023/05/31 07:58:45;;;;;;;9.98;6.10;;;22.30;99.90;;;;;;4160271;28;20436;-60
2023/05/31 08:00:46;;;;;;;13.75;6.50;;;22.20;99.90;;;;;;4161121;28;20091;-67
2023/05/31 08:02:47;;;;;;;9.68;6.38;;;22.10;99.90;;;;;;4159938;28;20107;-62
2023/05/31 08:04:48;;;;;;;12.75;5.97;;;22.30;99.90;;;;;;4160894;28;20049;-65
2023/05/31 08:06:50;;;;;;;12.57;6.00;;;22.30;99.90;;;;;;4159268;28;20045;-61
2023/05/31 08:08:51;;;;;;;9.82;6.43;;;22.60;99.90;;;;;;4160652;28;20091;-61
2023/05/31 08:10:52;;;;;;;7.60;5.30;;;22.70;99.90;;;;;;4160487;28;20717;-72
2023/05/31 08:12:54;;;;;;;10.10;5.55;;;22.80;99.90;;;;;;4159655;28;20103;-72
2023/05/31 08:14:55;;;;;;;9.57;5.30;;;23.00;99.90;;;;;;4159824;28;20049;-72
2023/05/31 08:16:56;;;;;;;14.77;5.63;;;23.10;99.90;;;;;;4160054;28;20030;-68
2023/05/31 08:18:58;;;;;;;11.32;5.57;;;23.10;99.90;;;;;;4160817;28;20072;-63
2023/05/31 08:20:59;;;;;;;9.70;6.00;;;23.10;99.90;;;;;;4160045;28;20580;-72
2023/05/31 08:23:00;;;;;;;7.57;5.50;;;23.10;99.90;;;;;;4164292;28;20051;-63
2023/05/31 08:25:01;;;;;;;6.95;5.10;;;23.20;99.90;;;;;;4163475;28;20103;-63
2023/05/31 08:27:03;;;;;;;7.90;5.28;;;23.50;99.90;;;;;;4163313;28;20046;-66
2023/05/31 08:29:04;;;;;;;9.13;5.55;;;23.60;99.90;;;;;;4163042;28;20033;-71
2023/05/31 08:31:05;;;;;;;11.30;5.57;;;23.60;99.90;;;;;;4163480;28;20473;-69
2023/05/31 08:33:07;;;;;;;7.60;5.38;;;23.50;99.90;;;;;;4162570;28;20041;-72
2023/05/31 08:35:08;;;;;;;7.65;4.47;;;23.70;99.90;;;;;;4163429;28;20053;-70
2023/05/31 08:37:09;;;;;;;5.97;4.20;;;24.10;99.90;;;;;;4161801;28;20045;-66
2023/05/31 08:39:11;;;;;;;6.30;4.20;;;24.30;99.90;;;;;;4163872;28;20095;-66
2023/05/31 08:41:12;;;;;;;7.22;4.68;;;24.20;99.90;;;;;;4162072;28;20041;-66
2023/05/31 08:43:20;;;;;;;7.55;4.88;;;24.20;99.90;;;;;;4162752;28;20045;-68
2023/05/31 08:45:21;;;;;;;6.72;4.63;;;24.20;99.90;;;;;;4162950;28;20021;-65
2023/05/31 08:47:49;;;;;;;7.38;4.30;;;24.20;99.90;;;;;;4162147;28;20041;-67
2023/05/31 08:49:50;;;;;;;8.38;4.10;;;24.00;99.90;;;;;;4163088;28;20017;-71
2023/05/31 08:51:53;;;;;;;7.78;4.38;;;24.00;99.90;;;;;;4162691;28;20071;-68
2023/05/31 08:53:57;;;;;;;7.22;4.55;;;23.90;99.90;;;;;;4163462;28;20095;-73
2023/05/31 08:56:01;;;;;;;6.65;4.00;;;23.90;99.90;;;;;;4162977;28;20021;-73
2023/05/31 08:58:03;;;;;;;10.73;4.10;;;23.90;99.90;;;;;;4163460;28;20038;-68
2023/05/31 09:00:11;;;;;;;4.80;3.58;;;24.10;99.90;;;;;;4162532;28;20053;-71
2023/05/31 09:02:13;;;;;;;5.22;4.18;;;24.10;99.90;;;;;;4163318;28;20037;-63
2023/05/31 09:04:15;;;;;;;5.55;3.65;;;24.20;99.90;;;;;;4162475;28;20091;-71
2023/05/31 09:06:16;;;;;;;6.57;3.85;;;24.10;99.90;;;;;;4145313;28;20237;-67
2023/05/31 09:08:18;;;;;;;5.82;3.30;;;23.90;99.90;;;;;;4162315;28;20083;-71
2023/05/31 09:10:19;;;;;;;6.15;3.17;;;23.90;99.80;;;;;;4163265;28;20082;-69
2023/05/31 09:12:21;;;;;;;6.88;4.28;;;23.90;99.50;;;;;;4161334;28;20156;-65
2023/05/31 09:14:24;;;;;;;5.43;3.75;;;23.90;99.40;;;;;;4162918;28;20033;-68
2023/05/31 09:16:27;;;;;;;5.65;3.40;;;24.00;99.30;;;;;;4161683;28;20049;-72
2023/05/31 09:18:39;;;;;;;4.72;3.05;;;24.10;98.60;;;;;;4163566;28;20030;-68
2023/05/31 09:20:40;;;;;;;4.35;3.17;;;24.00;97.90;;;;;;4161493;28;20092;-68
2023/05/31 09:22:41;;;;;;;5.80;2.75;;;24.00;97.20;;;;;;4163416;28;20049;-71
2023/05/31 09:24:58;;;;;;;4.43;3.00;;;24.10;96.10;;;;;;4162155;28;20037;-65
2023/05/31 09:27:00;;;;;;;6.25;3.50;;;24.20;95.90;;;;;;4163430;28;20083;-70
2023/05/31 09:29:06;;;;;;;5.47;3.08;;;24.10;95.80;;;;;;4160990;28;20391;-67
2023/05/31 09:31:07;;;;;;;6.85;3.13;;;24.20;95.80;;;;;;4162959;28;20026;-64
2023/05/31 09:33:08;;;;;;;7.13;3.60;;;24.10;96.00;;;;;;4161631;28;20025;-70
2023/05/31 09:35:11;;;;;;;3.53;2.80;;;24.00;96.10;;;;;;4161929;28;20087;-62
2023/05/31 09:37:23;;;;;;;3.80;3.22;;;24.00;96.40;;;;;;4161444;28;20095;-68
2023/05/31 09:39:24;;;;;;;5.35;3.05;;;24.10;96.20;;;;;;4161831;28;20095;-68
2023/05/31 09:41:25;;;;;;;4.88;3.17;;;24.00;96.00;;;;;;4161911;28;20033;-66
2023/05/31 09:43:26;;;;;;;5.65;3.15;;;24.00;95.50;;;;;;4161921;28;20087;-69
2023/05/31 09:45:28;;;;;;;5.28;2.83;;;24.00;95.60;;;;;;4162815;28;20026;-67
2023/05/31 09:47:29;;;;;;;7.13;3.17;;;24.10;95.50;;;;;;4161081;28;20041;-68
2023/05/31 09:49:30;;;;;;;4.50;2.80;;;24.30;95.50;;;;;;4163106;28;20072;-68
2023/05/31 09:51:33;;;;;;;4.35;2.88;;;24.30;95.00;;;;;;4161680;28;20352;-66
2023/05/31 09:53:43;;;;;;;3.00;2.55;;;24.10;94.70;;;;;;4161923;28;20048;-65
2023/05/31 09:55:44;;;;;;;6.38;2.65;;;24.00;93.60;;;;;;4161097;28;20418;-67
2023/05/31 09:57:46;;;;;;;7.15;2.95;;;23.80;94.00;;;;;;4162782;28;20064;-69
2023/05/31 09:59:57;;;;;;;7.47;3.17;;;23.90;94.10;;;;;;4161763;28;20095;-68
2023/05/31 10:01:59;;;;;;;5.93;3.00;;;23.90;93.40;;;;;;4161549;28;20095;-71
2023/05/31 10:04:03;;;;;;;3.25;2.65;;;24.00;93.50;;;;;;4161468;28;20433;-66
2023/05/31 10:06:04;;;;;;;5.95;2.67;;;24.00;93.30;;;;;;4143876;28;20033;-70
2023/05/31 10:08:05;;;;;;;7.50;3.42;;;24.20;93.20;;;;;;4160785;28;20033;-70
2023/05/31 10:10:08;;;;;;;5.90;3.00;;;24.10;92.90;;;;;;4161701;28;20053;-71
2023/05/31 10:12:11;;;;;;;8.07;2.92;;;24.20;93.30;;;;;;4160669;28;20087;-67
2023/05/31 10:14:38;;;;;;;12.88;3.15;;;24.30;93.00;;;;;;4162183;28;20421;-62
2023/05/31 10:17:04;;;;;;;5.82;3.10;;;24.50;92.90;;;;;;4161342;28;20429;-67
2023/05/31 10:19:10;;;;;;;7.57;3.00;;;24.50;92.80;;;;;;4161943;28;20033;-63
2023/05/31 10:21:13;;;;;;;5.15;2.90;;;24.30;92.50;;;;;;4161214;28;20018;-71
2023/05/31 10:23:25;;;;;;;7.18;3.00;;;24.30;92.70;;;;;;4162137;28;20110;-67
2023/05/31 10:25:38;;;;;;;5.60;2.80;;;24.40;91.70;;;;;;4161041;28;20745;-63
2023/05/31 10:27:44;;;;;;;4.05;2.58;;;24.60;91.50;;;;;;4162410;28;20171;-65
2023/05/31 10:29:51;;;;;;;5.18;2.70;;;24.60;92.00;;;;;;4161221;28;20009;-70
2023/05/31 10:31:55;;;;;;;7.90;2.50;;;24.60;91.90;;;;;;4162166;28;20053;-69
2023/05/31 10:34:06;;;;;;;5.82;3.17;;;24.60;92.00;;;;;;4160776;28;20099;-63